Etusivu
METAR-TAF:

METAR-TAF

Lentoasemat :

Mackinac Island Airport

Mackinac Island, Michigan, Yhdysvallat

Leveyspiiri: 45-51-54N, Pituuspiiri: 084-38-14W, korkeus merenpinnasta: 226 m

Tämänhetkinen sää

Tämä raportti tehtiin 24 minuuttia sitten, kello 17.15 UTC
Tuuli 9 kn pohjoisen/luoteesta puuskistuen 15 kn:hen
Lämpötila 3°C
Kosteus 93%
Ilmanpaine 1015 hPa
Näkyvyys: 16.1 km
Hajanaisia pilviä 2600 ft:n korkeudessa
Pilvistä 3600 ft:n korkeudessa

METAR: KMCD 301715Z AUTO 34009G15KT 10SM SCT026 OVC036 03/02 A2998 RMK AO2 T00260020

Aika: 13:39 (17:39 UTC)


TAF: puuttuu

Säähavainnot ja -ennusteet yli 4000 lentoasemalta (METAR- ja TAF-raportit).

Käytössä olevat sääasemat on merkitty karttaan keltaisilla ja punaisilla pisteillä.

Aseta hiiri pisteen päälle nähdäksesi sääaseman nimen.

Klikkaa sitten nähdäksesi säähavainnot ja -ennusteet.

Kartan vaihtaminen: klikkaa mustalla rastilla varustettuja vihreitä pisteitä, niin voit zoomata sisään; viivalla varustettua vihreää pistettä, niin voit zoomata ulos tai vihreitä nuolia, niin pääset viereisille kartoille.


METAR-TAF: